Time;durP1;ratioP1;P1;durP2;ratioP2;P2;SDS_P1;SDS_P2;PMS_P1;PMS_P2;Temp;Humidity;BMP_temperature;BMP_pressure;BME280_temperature;BME280_humidity;BME280_pressure;Samples;Min_cycle;Max_cycle;Signal;HPM_P1;HPM_P2
2022/03/02 00:01:40;;;;;;;43.30;23.63;;;7.60;99.90;;;;;;5031446;28;20035;-64
2022/03/02 00:04:06;;;;;;;43.50;23.55;;;7.50;99.90;;;;;;5033307;28;20033;-66
2022/03/02 00:06:32;;;;;;;42.20;23.73;;;7.60;99.90;;;;;;5037384;28;20448;-65
2022/03/02 00:08:57;;;;;;;48.63;24.75;;;7.60;99.90;;;;;;5041727;28;20492;-65
2022/03/02 00:11:23;;;;;;;43.40;24.15;;;7.60;99.90;;;;;;5037429;28;20025;-65
2022/03/02 00:13:49;;;;;;;42.25;23.42;;;7.60;99.90;;;;;;5040227;28;20032;-65
2022/03/02 00:16:16;;;;;;;41.67;22.58;;;7.70;99.90;;;;;;5041170;28;20037;-66
2022/03/02 00:18:43;;;;;;;41.38;22.65;;;7.70;99.90;;;;;;5039480;28;20034;-66
2022/03/02 00:21:09;;;;;;;41.90;21.77;;;7.70;99.90;;;;;;5047031;28;20029;-65
2022/03/02 00:23:34;;;;;;;41.97;22.30;;;7.70;99.90;;;;;;5033213;28;20046;-66
2022/03/02 00:26:00;;;;;;;42.20;23.13;;;7.70;99.90;;;;;;5050002;28;20035;-66
2022/03/02 00:28:25;;;;;;;43.35;22.45;;;7.70;99.90;;;;;;5037957;28;20028;-65
2022/03/02 00:30:51;;;;;;;41.25;23.00;;;7.70;99.90;;;;;;5032532;28;20083;-66
2022/03/02 00:33:17;;;;;;;40.22;23.25;;;7.70;99.90;;;;;;5043851;28;20051;-66
2022/03/02 00:35:43;;;;;;;40.92;21.85;;;7.70;99.90;;;;;;5043680;28;20087;-66
2022/03/02 00:38:10;;;;;;;40.95;22.80;;;7.70;99.90;;;;;;5035409;28;20041;-65
2022/03/02 00:40:37;;;;;;;39.13;22.55;;;7.70;99.90;;;;;;5034901;28;20033;-66
2022/03/02 00:43:04;;;;;;;44.45;22.83;;;7.70;99.90;;;;;;5042818;28;20036;-65
2022/03/02 00:45:31;;;;;;;39.60;22.02;;;7.70;99.90;;;;;;5041901;28;20061;-66
2022/03/02 00:47:58;;;;;;;42.97;23.25;;;7.70;99.90;;;;;;5041747;28;20026;-66
2022/03/02 00:50:23;;;;;;;41.85;22.17;;;7.70;99.90;;;;;;5028947;28;20044;-65
2022/03/02 00:52:49;;;;;;;40.33;22.70;;;7.70;99.90;;;;;;5031801;28;20441;-65
2022/03/02 00:55:15;;;;;;;39.08;22.98;;;7.70;99.90;;;;;;5031283;28;20032;-66
2022/03/02 00:57:41;;;;;;;41.67;22.38;;;7.70;99.90;;;;;;5045343;28;20449;-65
2022/03/02 01:00:08;;;;;;;40.70;22.77;;;7.70;99.90;;;;;;5031064;28;20041;-66
2022/03/02 01:02:34;;;;;;;43.00;22.23;;;7.70;99.90;;;;;;5029933;28;20052;-67
2022/03/02 01:04:59;;;;;;;40.05;22.15;;;7.70;99.90;;;;;;5029890;28;20361;-67
2022/03/02 01:07:25;;;;;;;40.83;21.85;;;7.70;99.90;;;;;;5032849;28;20044;-68
2022/03/02 01:09:50;;;;;;;43.25;22.65;;;7.70;99.90;;;;;;5042140;28;20036;-65
2022/03/02 01:12:16;;;;;;;44.65;22.77;;;7.80;99.90;;;;;;5037852;28;20029;-65
2022/03/02 01:14:42;;;;;;;40.65;23.42;;;7.80;99.90;;;;;;5038127;28;20100;-68
2022/03/02 01:17:07;;;;;;;40.42;23.15;;;7.70;99.90;;;;;;5040823;28;20468;-68
2022/03/02 01:19:33;;;;;;;42.00;23.25;;;7.70;99.90;;;;;;5041274;28;20049;-65
2022/03/02 01:21:59;;;;;;;41.58;21.70;;;7.70;99.90;;;;;;5038238;28;20690;-67
2022/03/02 01:24:24;;;;;;;42.40;22.88;;;7.70;99.90;;;;;;5041431;28;20052;-66
2022/03/02 01:26:50;;;;;;;43.25;23.10;;;7.70;99.90;;;;;;5029290;28;20049;-68
2022/03/02 01:29:16;;;;;;;43.10;23.13;;;7.80;99.90;;;;;;5040350;28;20087;-68
2022/03/02 01:31:43;;;;;;;41.15;22.55;;;7.70;99.90;;;;;;5032693;28;20269;-70
2022/03/02 01:34:08;;;;;;;42.67;23.77;;;7.80;99.90;;;;;;5044894;28;20535;-69
2022/03/02 01:36:34;;;;;;;41.13;23.17;;;7.80;99.90;;;;;;5043686;28;20045;-67
2022/03/02 01:38:59;;;;;;;43.60;23.60;;;7.80;99.90;;;;;;5041334;28;20044;-66
2022/03/02 01:41:25;;;;;;;39.13;23.05;;;7.70;99.90;;;;;;5031990;28;20120;-64
2022/03/02 01:43:53;;;;;;;42.00;22.30;;;7.70;99.90;;;;;;5043005;28;20061;-68
2022/03/02 01:46:19;;;;;;;42.85;23.30;;;7.80;99.90;;;;;;5043850;28;20033;-66
2022/03/02 01:48:46;;;;;;;40.28;23.23;;;7.80;99.90;;;;;;5036542;28;20036;-69
2022/03/02 01:51:13;;;;;;;40.38;21.83;;;7.70;99.90;;;;;;5040041;28;20026;-66
2022/03/02 01:53:39;;;;;;;39.13;23.25;;;7.70;99.90;;;;;;5030100;28;20049;-67
2022/03/02 01:56:05;;;;;;;38.50;22.45;;;7.80;99.90;;;;;;5036770;28;20033;-65
2022/03/02 01:58:30;;;;;;;41.47;22.33;;;7.70;99.90;;;;;;5051711;28;20461;-68
2022/03/02 02:00:57;;;;;;;40.92;22.98;;;7.70;99.90;;;;;;5038667;28;20087;-69
2022/03/02 02:03:23;;;;;;;41.00;22.48;;;7.80;99.90;;;;;;5050042;28;20092;-68
2022/03/02 02:05:49;;;;;;;40.58;21.85;;;7.80;99.90;;;;;;5052556;28;20037;-66
2022/03/02 02:08:15;;;;;;;41.88;21.42;;;7.70;99.90;;;;;;5043398;28;20028;-65
2022/03/02 02:10:41;;;;;;;40.35;21.98;;;7.70;99.90;;;;;;5047420;28;20057;-67
2022/03/02 02:13:07;;;;;;;41.35;23.63;;;7.70;99.90;;;;;;5039713;28;20441;-65
2022/03/02 02:15:32;;;;;;;41.65;24.13;;;7.70;99.90;;;;;;5053694;28;20365;-69
2022/03/02 02:17:58;;;;;;;44.75;24.95;;;7.70;99.90;;;;;;5039078;28;20075;-67
2022/03/02 02:20:25;;;;;;;42.15;23.27;;;7.70;99.90;;;;;;5036870;28;20033;-64
2022/03/02 02:22:51;;;;;;;46.60;25.42;;;7.70;99.90;;;;;;5037044;28;20037;-65
2022/03/02 02:25:17;;;;;;;43.58;24.67;;;7.60;99.90;;;;;;5038257;28;20036;-65
2022/03/02 02:27:44;;;;;;;47.20;23.95;;;7.60;99.90;;;;;;5038040;28;20025;-65
2022/03/02 02:30:12;;;;;;;44.15;25.10;;;7.60;99.90;;;;;;5038705;28;20108;-64
2022/03/02 02:32:39;;;;;;;44.42;24.40;;;7.70;99.90;;;;;;5037844;28;20036;-65
2022/03/02 02:35:08;;;;;;;41.08;23.60;;;7.70;99.90;;;;;;5041279;28;20037;-65
2022/03/02 02:37:35;;;;;;;41.70;24.33;;;7.60;99.90;;;;;;5035174;28;20029;-65
2022/03/02 02:40:04;;;;;;;43.90;24.42;;;7.60;99.90;;;;;;5037175;28;20045;-65
2022/03/02 02:42:30;;;;;;;42.63;23.70;;;7.60;99.90;;;;;;5034150;28;20021;-66
2022/03/02 02:44:56;;;;;;;45.75;24.48;;;7.60;99.90;;;;;;5034358;28;20035;-65
2022/03/02 02:47:21;;;;;;;44.42;24.15;;;7.60;99.90;;;;;;5037690;28;20050;-65
2022/03/02 02:49:47;;;;;;;44.20;23.75;;;7.60;99.90;;;;;;5036427;28;20040;-65
2022/03/02 02:52:14;;;;;;;40.55;23.13;;;7.60;99.90;;;;;;5035895;28;20083;-66
2022/03/02 02:54:41;;;;;;;42.13;23.10;;;7.60;99.90;;;;;;5036560;28;20044;-65
2022/03/02 02:57:07;;;;;;;41.13;23.25;;;7.60;99.90;;;;;;5033202;28;20017;-65
2022/03/02 02:59:32;;;;;;;43.42;23.73;;;7.60;99.90;;;;;;5032747;28;20458;-65
2022/03/02 03:01:58;;;;;;;43.75;25.27;;;7.60;99.90;;;;;;5032099;28;20497;-64
2022/03/02 03:04:24;;;;;;;42.58;24.58;;;7.60;99.90;;;;;;5033917;28;20025;-65
2022/03/02 03:06:50;;;;;;;45.72;24.15;;;7.60;99.90;;;;;;5036064;28;20049;-65
2022/03/02 03:09:16;;;;;;;47.08;25.83;;;7.60;99.90;;;;;;5032406;28;20033;-67
2022/03/02 03:11:42;;;;;;;45.22;24.95;;;7.60;99.90;;;;;;5031230;28;20030;-65
2022/03/02 03:14:10;;;;;;;42.72;24.33;;;7.60;99.90;;;;;;5032477;28;20038;-65
2022/03/02 03:16:36;;;;;;;47.42;24.20;;;7.60;99.90;;;;;;5033693;28;20024;-65
2022/03/02 03:19:01;;;;;;;44.53;24.70;;;7.60;99.90;;;;;;5033488;28;20037;-66
2022/03/02 03:21:27;;;;;;;43.08;24.77;;;7.60;99.90;;;;;;5033050;28;20029;-64
2022/03/02 03:23:53;;;;;;;42.58;24.80;;;7.60;99.90;;;;;;5030618;28;20045;-65
2022/03/02 03:26:18;;;;;;;42.08;23.40;;;7.60;99.90;;;;;;5030092;28;20072;-65
2022/03/02 03:28:44;;;;;;;41.58;23.95;;;7.60;99.90;;;;;;5031229;28;20060;-66
2022/03/02 03:31:09;;;;;;;45.05;24.55;;;7.60;99.90;;;;;;5032911;28;20025;-65
2022/03/02 03:33:35;;;;;;;41.83;24.95;;;7.60;99.90;;;;;;5032381;28;20040;-66
2022/03/02 03:36:00;;;;;;;43.85;24.65;;;7.60;99.90;;;;;;5027147;28;20505;-66
2022/03/02 03:38:26;;;;;;;45.13;24.80;;;7.60;99.90;;;;;;5015076;28;20100;-66
2022/03/02 03:40:52;;;;;;;42.53;23.50;;;7.50;99.90;;;;;;5024610;28;20555;-65
2022/03/02 03:43:17;;;;;;;44.53;24.60;;;7.50;99.90;;;;;;5032214;28;20420;-65
2022/03/02 03:45:43;;;;;;;44.05;24.45;;;7.50;99.90;;;;;;5016029;28;20116;-64
2022/03/02 03:48:09;;;;;;;43.95;24.45;;;7.50;99.90;;;;;;5021852;28;20032;-65
2022/03/02 03:50:35;;;;;;;45.08;24.63;;;7.60;99.90;;;;;;5015994;28;20032;-65
2022/03/02 03:53:01;;;;;;;44.08;24.95;;;7.50;99.90;;;;;;5015410;28;20444;-65
2022/03/02 03:55:26;;;;;;;42.78;24.65;;;7.50;99.90;;;;;;5015502;28;20777;-65
2022/03/02 03:57:52;;;;;;;39.95;23.05;;;7.50;99.90;;;;;;5015219;28;20425;-64
2022/03/02 04:00:19;;;;;;;43.42;24.98;;;7.50;99.90;;;;;;5027323;28;20048;-65
2022/03/02 04:02:45;;;;;;;47.35;25.80;;;7.50;99.90;;;;;;5023325;28;20065;-65
2022/03/02 04:05:12;;;;;;;45.85;25.00;;;7.50;99.90;;;;;;5027156;28;20541;-66
2022/03/02 04:07:38;;;;;;;49.28;25.77;;;7.50;99.90;;;;;;5014527;28;20056;-66
2022/03/02 04:10:08;;;;;;;46.95;27.40;;;7.50;99.90;;;;;;5014591;28;20034;-67
2022/03/02 04:12:34;;;;;;;44.70;25.25;;;7.50;99.90;;;;;;5014795;28;20040;-66
2022/03/02 04:15:00;;;;;;;46.78;26.08;;;7.50;99.90;;;;;;5029126;28;20445;-65
2022/03/02 04:17:26;;;;;;;42.03;24.42;;;7.50;99.90;;;;;;5014537;28;20064;-66
2022/03/02 04:19:51;;;;;;;49.38;26.10;;;7.50;99.90;;;;;;5017877;28;20037;-66
2022/03/02 04:22:17;;;;;;;47.75;26.38;;;7.50;99.90;;;;;;5020414;28;20029;-65
2022/03/02 04:24:43;;;;;;;48.60;25.35;;;7.50;99.90;;;;;;5032582;28;20083;-66
2022/03/02 04:27:08;;;;;;;45.03;25.17;;;7.50;99.90;;;;;;5018244;28;20113;-65
2022/03/02 04:29:34;;;;;;;42.33;24.75;;;7.50;99.90;;;;;;5036147;28;20033;-67
2022/03/02 04:32:00;;;;;;;44.05;25.98;;;7.50;99.90;;;;;;5023239;28;20046;-66
2022/03/02 04:34:26;;;;;;;44.75;25.25;;;7.40;99.90;;;;;;5035770;28;20067;-66
2022/03/02 04:36:53;;;;;;;44.78;25.15;;;7.40;99.90;;;;;;5029784;28;20034;-65
2022/03/02 04:39:18;;;;;;;44.28;24.63;;;7.40;99.90;;;;;;5014807;28;20097;-67
2022/03/02 04:41:44;;;;;;;42.95;24.75;;;7.40;99.90;;;;;;5028169;28;20079;-66
2022/03/02 04:44:09;;;;;;;45.55;26.40;;;7.40;99.90;;;;;;5049382;28;20025;-66
2022/03/02 04:46:35;;;;;;;46.17;25.23;;;7.50;99.90;;;;;;5037282;28;20079;-67
2022/03/02 04:49:10;;;;;;;46.75;24.83;;;7.50;99.90;;;;;;5045264;28;20034;-66
2022/03/02 04:51:40;;;;;;;46.53;25.25;;;7.50;99.90;;;;;;5045491;28;20051;-66
2022/03/02 04:54:06;;;;;;;43.50;24.80;;;7.50;99.90;;;;;;5029179;28;20018;-66
2022/03/02 04:56:32;;;;;;;44.72;26.10;;;7.50;99.90;;;;;;5049695;28;20190;-66
2022/03/02 04:58:57;;;;;;;43.40;23.45;;;7.50;99.90;;;;;;5048790;28;20508;-66
2022/03/02 05:01:23;;;;;;;43.35;23.27;;;7.60;99.90;;;;;;5042283;28;20025;-66
2022/03/02 05:03:48;;;;;;;44.70;24.75;;;7.60;99.90;;;;;;5034521;28;20112;-66
2022/03/02 05:06:14;;;;;;;42.17;23.08;;;7.60;99.90;;;;;;5048838;28;20477;-67
2022/03/02 05:08:42;;;;;;;43.47;24.50;;;7.50;99.90;;;;;;5036326;28;20039;-66
2022/03/02 05:11:08;;;;;;;44.22;25.10;;;7.50;99.90;;;;;;5037809;28;20030;-66
2022/03/02 05:13:36;;;;;;;40.17;23.40;;;7.50;99.90;;;;;;5013253;28;20032;-67
2022/03/02 05:16:01;;;;;;;41.28;23.80;;;7.50;99.90;;;;;;5026557;28;20150;-65
2022/03/02 05:18:27;;;;;;;44.95;24.10;;;7.50;99.90;;;;;;5021306;28;20435;-66
2022/03/02 05:20:52;;;;;;;42.47;23.67;;;7.50;99.90;;;;;;5028930;28;20049;-66
2022/03/02 05:23:18;;;;;;;39.88;22.52;;;7.50;99.90;;;;;;5018817;28;20050;-67
2022/03/02 05:25:43;;;;;;;39.08;22.48;;;7.50;99.90;;;;;;5040032;28;20032;-66
2022/03/02 05:28:09;;;;;;;40.72;23.05;;;7.50;99.90;;;;;;5031197;28;20083;-66
2022/03/02 05:30:34;;;;;;;43.85;23.83;;;7.50;99.90;;;;;;5033743;28;20044;-66
2022/03/02 05:33:00;;;;;;;44.47;25.40;;;7.50;99.90;;;;;;5034362;28;20030;-66
2022/03/02 05:35:25;;;;;;;39.03;22.65;;;7.50;99.90;;;;;;5024284;28;20029;-66
2022/03/02 05:37:51;;;;;;;41.83;23.30;;;7.50;99.90;;;;;;5032735;28;20120;-66
2022/03/02 05:40:19;;;;;;;43.35;22.73;;;7.50;99.90;;;;;;5028538;28;20084;-67
2022/03/02 05:42:44;;;;;;;41.58;23.50;;;7.50;99.90;;;;;;5035290;28;20025;-66
2022/03/02 05:45:11;;;;;;;42.75;23.90;;;7.50;99.90;;;;;;5018492;28;20022;-66
2022/03/02 05:47:38;;;;;;;42.15;23.38;;;7.50;99.90;;;;;;5026825;28;20067;-65
2022/03/02 05:50:06;;;;;;;41.75;22.67;;;7.50;99.90;;;;;;5022284;28;20527;-67
2022/03/02 05:52:32;;;;;;;42.55;22.63;;;7.50;99.90;;;;;;5030441;28;20064;-65
2022/03/02 05:54:58;;;;;;;42.33;23.90;;;7.40;99.90;;;;;;5037959;28;20049;-66
2022/03/02 05:57:24;;;;;;;41.63;23.25;;;7.40;99.90;;;;;;5027169;28;20095;-66
2022/03/02 05:59:50;;;;;;;42.03;23.33;;;7.40;99.90;;;;;;5028004;28;20034;-66
2022/03/02 06:02:15;;;;;;;40.08;22.27;;;7.40;99.90;;;;;;5018159;28;20095;-66
2022/03/02 06:04:41;;;;;;;43.63;24.15;;;7.40;99.90;;;;;;5022649;28;20072;-67
2022/03/02 06:07:06;;;;;;;44.88;24.52;;;7.40;99.90;;;;;;5028556;28;20034;-66
2022/03/02 06:09:32;;;;;;;43.20;24.13;;;7.40;99.90;;;;;;5025932;28;20038;-66
2022/03/02 06:11:58;;;;;;;47.30;25.88;;;7.40;99.90;;;;;;5046263;28;20030;-66
2022/03/02 06:14:24;;;;;;;40.50;23.80;;;7.40;99.90;;;;;;5022741;28;20041;-66
2022/03/02 06:16:50;;;;;;;45.28;24.50;;;7.40;99.90;;;;;;5029240;28;20026;-67
2022/03/02 06:19:16;;;;;;;45.92;25.38;;;7.40;99.90;;;;;;5031975;28;20057;-66
2022/03/02 06:21:43;;;;;;;42.47;25.10;;;7.40;99.90;;;;;;5023825;28;20377;-67
2022/03/02 06:24:10;;;;;;;43.55;24.02;;;7.40;99.90;;;;;;5027132;28;20053;-65
2022/03/02 06:26:35;;;;;;;41.28;23.42;;;7.40;99.90;;;;;;5030166;28;20052;-66
2022/03/02 06:29:02;;;;;;;41.53;22.00;;;7.30;99.90;;;;;;5029726;28;20350;-66
2022/03/02 06:31:27;;;;;;;45.25;22.65;;;7.30;99.90;;;;;;5030665;28;20037;-66
2022/03/02 06:33:53;;;;;;;41.45;23.83;;;7.20;99.90;;;;;;5038078;28;20166;-67
2022/03/02 06:36:20;;;;;;;45.67;25.50;;;7.20;99.90;;;;;;5021654;28;20037;-65
2022/03/02 06:38:46;;;;;;;40.65;22.35;;;7.10;99.90;;;;;;5026268;28;20038;-66
2022/03/02 06:41:24;;;;;;;42.25;23.92;;;7.10;99.90;;;;;;5042672;28;20028;-66
2022/03/02 06:44:22;;;;;;;45.67;23.67;;;7.00;99.90;;;;;;5032572;28;20124;-66
2022/03/02 06:46:59;;;;;;;42.92;24.17;;;7.00;99.90;;;;;;5016215;28;20046;-67
2022/03/02 06:49:33;;;;;;;42.13;24.73;;;6.90;99.90;;;;;;5023913;28;20483;-66
2022/03/02 06:52:01;;;;;;;43.45;23.17;;;7.00;99.90;;;;;;5047581;28;20027;-67
2022/03/02 06:54:30;;;;;;;41.08;22.65;;;6.90;99.90;;;;;;5032119;28;20030;-66
2022/03/02 06:56:57;;;;;;;40.83;23.15;;;7.00;99.90;;;;;;5021564;28;20018;-64
2022/03/02 06:59:38;;;;;;;45.75;25.15;;;7.00;99.90;;;;;;5026142;28;20050;-67
2022/03/02 07:02:04;;;;;;;43.78;25.10;;;7.00;99.90;;;;;;5030451;28;20044;-67
2022/03/02 07:04:40;;;;;;;46.72;25.38;;;7.00;99.90;;;;;;5026175;28;20092;-66
2022/03/02 07:07:06;;;;;;;45.55;24.65;;;7.10;99.90;;;;;;5029059;28;20477;-65
2022/03/02 07:09:34;;;;;;;44.42;22.65;;;7.10;99.90;;;;;;5032312;28;20040;-67
2022/03/02 07:12:05;;;;;;;43.88;23.83;;;7.10;99.90;;;;;;5033042;28;20052;-67
2022/03/02 07:14:32;;;;;;;49.90;26.08;;;7.20;99.90;;;;;;5034045;28;20055;-65
2022/03/02 07:17:00;;;;;;;42.72;22.92;;;7.10;99.90;;;;;;5032950;28;20412;-68
2022/03/02 07:19:26;;;;;;;45.45;25.42;;;7.10;99.90;;;;;;5017547;28;20042;-71
2022/03/02 07:21:53;;;;;;;41.97;23.52;;;7.10;99.90;;;;;;5033948;28;20036;-64
2022/03/02 07:24:22;;;;;;;46.28;24.75;;;7.10;99.90;;;;;;5018355;28;20086;-66
2022/03/02 07:26:54;;;;;;;48.97;26.08;;;7.10;99.90;;;;;;5023543;28;20049;-67
2022/03/02 07:29:23;;;;;;;44.03;23.90;;;7.10;99.90;;;;;;5016730;28;20037;-65
2022/03/02 07:31:52;;;;;;;43.00;23.70;;;7.20;99.90;;;;;;5027797;28;20083;-68
2022/03/02 07:34:18;;;;;;;43.20;24.83;;;7.20;99.90;;;;;;5026909;28;20041;-66
2022/03/02 07:36:45;;;;;;;45.08;22.83;;;7.20;99.90;;;;;;5038959;28;20029;-69
2022/03/02 07:39:11;;;;;;;43.88;24.63;;;7.30;99.90;;;;;;5032864;28;20111;-64
2022/03/02 07:41:37;;;;;;;43.63;23.70;;;7.40;99.90;;;;;;5040507;28;20033;-65
2022/03/02 07:44:04;;;;;;;44.42;24.58;;;7.40;99.90;;;;;;5028542;28;20029;-67
2022/03/02 07:46:30;;;;;;;46.55;23.70;;;7.50;99.90;;;;;;5036054;28;20025;-66
2022/03/02 07:48:57;;;;;;;45.50;24.02;;;7.50;99.90;;;;;;5039740;28;20025;-66
2022/03/02 07:51:23;;;;;;;42.78;23.95;;;7.60;99.90;;;;;;5042625;28;20048;-67
2022/03/02 07:53:51;;;;;;;46.13;24.38;;;7.60;99.90;;;;;;5049317;28;20056;-66
2022/03/02 07:56:18;;;;;;;43.05;23.15;;;7.70;99.90;;;;;;5032440;28;20056;-68
2022/03/02 07:58:44;;;;;;;41.80;23.77;;;7.80;99.90;;;;;;5019787;28;20072;-66
2022/03/02 08:01:19;;;;;;;43.83;22.60;;;7.80;99.90;;;;;;5023620;28;20462;-67
2022/03/02 08:03:45;;;;;;;39.67;21.70;;;7.80;99.90;;;;;;5030685;28;20484;-66
2022/03/02 08:06:13;;;;;;;42.15;23.20;;;7.80;99.90;;;;;;5027225;28;20060;-63
2022/03/02 08:08:39;;;;;;;38.42;22.20;;;7.90;99.90;;;;;;5047356;28;20026;-65
2022/03/02 08:11:05;;;;;;;44.17;22.48;;;7.90;99.90;;;;;;5035183;28;20037;-67
2022/03/02 08:13:33;;;;;;;38.35;22.65;;;7.90;99.90;;;;;;5045374;28;20029;-66
2022/03/02 08:15:59;;;;;;;43.50;22.85;;;7.90;99.90;;;;;;5035365;28;20028;-66
2022/03/02 08:18:26;;;;;;;43.45;23.73;;;7.90;99.90;;;;;;5032254;28;20052;-65
2022/03/02 08:20:54;;;;;;;41.55;22.33;;;7.90;99.90;;;;;;5045729;28;20047;-65
2022/03/02 08:23:21;;;;;;;39.78;22.05;;;7.90;99.90;;;;;;5032435;28;20045;-65
2022/03/02 08:25:50;;;;;;;38.75;21.98;;;8.00;99.90;;;;;;5036044;28;20038;-65
2022/03/02 08:28:18;;;;;;;40.92;23.20;;;8.10;99.90;;;;;;5036320;28;20029;-67
2022/03/02 08:30:49;;;;;;;43.20;23.65;;;8.30;99.90;;;;;;5035396;28;20033;-66
2022/03/02 08:33:20;;;;;;;44.38;23.20;;;8.50;99.90;;;;;;5043328;28;20029;-67
2022/03/02 08:35:49;;;;;;;42.45;23.00;;;8.80;99.90;;;;;;5037825;28;20026;-68
2022/03/02 08:38:15;;;;;;;38.88;21.92;;;9.10;99.90;;;;;;5036391;28;20048;-67
2022/03/02 08:40:42;;;;;;;37.40;20.00;;;9.50;99.90;;;;;;5037513;28;20100;-65
2022/03/02 08:43:07;;;;;;;42.80;22.08;;;9.90;99.90;;;;;;5045358;28;20017;-66
2022/03/02 08:45:33;;;;;;;37.30;20.85;;;10.00;99.90;;;;;;5030558;28;20025;-68
2022/03/02 08:48:05;;;;;;;37.05;21.10;;;10.40;99.90;;;;;;5038876;28;20029;-69
2022/03/02 08:50:31;;;;;;;36.10;20.77;;;10.80;99.90;;;;;;5033140;28;20028;-67
2022/03/02 08:52:57;;;;;;;39.80;22.05;;;11.30;99.90;;;;;;5017594;28;20038;-67
2022/03/02 08:55:27;;;;;;;34.45;20.02;;;12.00;99.90;;;;;;5030853;28;20061;-68
2022/03/02 08:57:54;;;;;;;37.85;20.05;;;12.60;99.90;;;;;;5030749;28;20363;-68
2022/03/02 09:00:20;;;;;;;32.08;18.92;;;13.30;99.90;;;;;;5030152;28;20132;-68
2022/03/02 09:02:47;;;;;;;33.35;20.33;;;14.10;99.90;;;;;;5023460;28;20116;-68
2022/03/02 09:05:13;;;;;;;34.65;20.00;;;14.80;99.90;;;;;;5031379;28;20562;-70
2022/03/02 09:07:39;;;;;;;33.70;20.10;;;15.30;99.90;;;;;;5029607;28;20112;-65
2022/03/02 09:10:05;;;;;;;34.67;21.13;;;15.80;99.90;;;;;;5028866;28;20039;-67
2022/03/02 09:12:31;;;;;;;33.67;20.13;;;16.30;98.60;;;;;;5029912;28;20034;-65
2022/03/02 09:14:58;;;;;;;33.35;20.30;;;16.30;97.70;;;;;;5026915;28;20026;-64
2022/03/02 09:17:25;;;;;;;33.97;20.08;;;16.50;97.70;;;;;;5029121;28;20033;-66
2022/03/02 09:19:55;;;;;;;33.70;20.58;;;16.90;96.70;;;;;;5030547;28;20382;-69
2022/03/02 09:22:26;;;;;;;30.83;19.85;;;17.30;95.70;;;;;;5030829;28;20061;-69
2022/03/02 09:24:52;;;;;;;30.65;19.88;;;17.50;94.70;;;;;;5031066;28;20457;-68
2022/03/02 09:27:20;;;;;;;34.50;19.75;;;17.60;93.90;;;;;;5031138;28;20025;-68
2022/03/02 09:29:47;;;;;;;32.53;19.30;;;17.90;93.60;;;;;;5031374;28;20108;-67
2022/03/02 09:32:15;;;;;;;29.92;19.00;;;18.20;92.30;;;;;;5031718;28;20044;-67
2022/03/02 09:34:45;;;;;;;30.30;18.88;;;18.40;90.40;;;;;;5031637;28;20124;-67
2022/03/02 09:37:14;;;;;;;29.52;18.08;;;18.50;89.40;;;;;;5031482;28;20029;-65
2022/03/02 09:39:40;;;;;;;29.70;18.27;;;18.60;88.70;;;;;;5030301;28;20124;-67
2022/03/02 09:42:10;;;;;;;30.63;18.50;;;18.70;87.80;;;;;;5030302;28;20489;-70
2022/03/02 09:44:44;;;;;;;33.30;18.40;;;18.90;85.70;;;;;;5021775;28;20022;-67
2022/03/02 09:47:16;;;;;;;27.38;16.55;;;19.10;84.10;;;;;;5024866;28;20477;-66
2022/03/02 09:50:02;;;;;;;;;;;19.40;80.00;;;;;;5027304;28;20109;-66
2022/03/02 09:52:31;;;;;;;29.08;16.45;;;19.60;78.40;;;;;;5027889;28;19917;-66
2022/03/02 09:54:58;;;;;;;28.00;17.92;;;19.90;75.70;;;;;;5032480;28;20036;-67
2022/03/02 09:57:24;;;;;;;28.75;17.35;;;19.90;75.40;;;;;;5032647;28;20025;-66
2022/03/02 09:59:54;;;;;;;26.80;16.23;;;20.00;74.10;;;;;;5019578;28;20041;-66
2022/03/02 10:02:36;;;;;;;25.92;15.80;;;20.10;71.00;;;;;;5026309;28;20029;-66
2022/03/02 10:05:06;;;;;;;25.35;14.88;;;20.00;68.30;;;;;;5035693;28;20439;-66
2022/03/02 10:07:36;;;;;;;24.60;15.75;;;19.90;67.70;;;;;;5024299;28;21434;-67
2022/03/02 10:10:13;;;;;;;27.27;15.55;;;19.90;69.10;;;;;;5036477;28;20044;-66
2022/03/02 10:12:40;;;;;;;29.52;16.50;;;20.00;66.00;;;;;;5024781;28;20040;-66
2022/03/02 10:15:10;;;;;;;29.83;18.23;;;19.80;65.80;;;;;;5016702;28;20057;-65
2022/03/02 10:17:38;;;;;;;26.67;17.15;;;20.00;69.00;;;;;;5028535;28;20053;-68
2022/03/02 10:20:07;;;;;;;27.98;16.48;;;20.40;69.30;;;;;;5038820;28;20043;-69
2022/03/02 10:22:45;;;;;;;28.52;17.60;;;20.60;65.80;;;;;;5046872;28;20057;-67
2022/03/02 10:25:14;;;;;;;27.08;16.58;;;20.60;65.80;;;;;;5034631;28;20025;-69
2022/03/02 10:27:46;;;;;;;30.17;17.73;;;20.70;65.90;;;;;;5043401;28;20041;-66
2022/03/02 10:30:12;;;;;;;30.65;18.25;;;20.70;65.60;;;;;;5027937;28;20401;-66
2022/03/02 10:32:42;;;;;;;29.88;18.83;;;20.90;65.40;;;;;;5031712;28;20029;-66
2022/03/02 10:35:13;;;;;;;32.63;18.35;;;21.20;65.30;;;;;;5030585;28;20029;-66
2022/03/02 10:37:48;;;;;;;28.80;18.45;;;21.40;65.30;;;;;;5029593;28;20030;-66
2022/03/02 10:40:24;;;;;;;29.13;18.13;;;21.60;65.10;;;;;;5035882;28;20074;-66
2022/03/02 10:43:00;;;;;;;31.58;19.80;;;21.60;66.10;;;;;;5024629;28;20024;-66
2022/03/02 10:45:36;;;;;;;31.08;19.42;;;21.60;66.10;;;;;;5027817;28;20524;-68
2022/03/02 10:48:16;;;;;;;31.50;19.25;;;21.60;65.20;;;;;;5028708;28;20033;-68
2022/03/02 10:50:44;;;;;;;28.10;18.02;;;21.60;65.80;;;;;;5030822;28;20492;-69
2022/03/02 10:53:15;;;;;;;27.00;18.55;;;21.90;64.30;;;;;;5027473;28;20033;-69
2022/03/02 10:55:44;;;;;;;29.63;18.55;;;22.00;63.00;;;;;;5044369;28;20021;-69
2022/03/02 10:58:14;;;;;;;30.33;18.52;;;22.00;63.00;;;;;;5051058;28;20036;-65
2022/03/02 11:00:40;;;;;;;26.33;16.50;;;22.00;63.10;;;;;;5047340;28;20051;-67
2022/03/02 11:03:08;;;;;;;29.63;18.27;;;21.70;60.20;;;;;;5037155;28;20033;-67
2022/03/02 11:05:34;;;;;;;26.70;15.90;;;21.40;61.10;;;;;;5035114;28;20079;-67
2022/03/02 11:08:00;;;;;;;30.20;16.75;;;21.10;60.00;;;;;;5037635;28;20060;-68
2022/03/02 11:10:33;;;;;;;27.20;17.35;;;21.00;60.20;;;;;;5036143;28;20087;-68
2022/03/02 11:13:05;;;;;;;27.15;17.15;;;21.00;61.50;;;;;;5034977;28;20108;-67
2022/03/02 11:15:58;;;;;;;25.95;16.00;;;21.20;62.10;;;;;;5035229;28;20125;-68
2022/03/02 11:18:38;;;;;;;26.08;16.50;;;21.60;59.90;;;;;;5016069;28;20032;-67
2022/03/02 11:21:06;;;;;;;25.50;16.25;;;21.90;59.00;;;;;;5032497;28;20024;-67
2022/03/02 11:23:44;;;;;;;27.63;16.45;;;22.20;58.60;;;;;;5050303;28;20053;-70
2022/03/02 11:26:34;;;;;;;27.38;16.05;;;22.50;56.90;;;;;;5015011;28;20030;-67
2022/03/02 11:29:15;;;;;;;26.77;15.02;;;22.50;55.60;;;;;;5031826;28;20040;-68
2022/03/02 11:31:45;;;;;;;21.23;12.85;;;22.50;53.90;;;;;;5054925;28;20025;-70
2022/03/02 11:34:21;;;;;;;26.77;13.27;;;22.40;51.00;;;;;;5054655;28;20029;-68
2022/03/02 11:36:53;;;;;;;24.33;13.90;;;22.20;50.60;;;;;;5051509;28;20590;-67
2022/03/02 11:39:21;;;;;;;23.38;13.45;;;22.10;50.70;;;;;;5034938;28;20049;-68
2022/03/02 11:41:52;;;;;;;25.83;15.18;;;22.10;51.50;;;;;;5033859;28;20779;-67
2022/03/02 11:44:31;;;;;;;25.40;14.57;;;22.20;52.90;;;;;;5033365;28;20540;-68
2022/03/02 11:47:02;;;;;;;23.40;14.50;;;22.30;53.00;;;;;;5034626;28;20147;-67
2022/03/02 11:49:37;;;;;;;21.23;13.30;;;22.50;52.90;;;;;;5034523;28;20124;-67
2022/03/02 11:52:09;;;;;;;24.33;14.02;;;22.60;51.60;;;;;;5034207;28;20537;-68
2022/03/02 11:54:59;;;;;;;21.50;12.75;;;22.60;50.10;;;;;;5042696;28;20033;-69
2022/03/02 11:57:27;;;;;;;21.98;11.88;;;22.50;48.60;;;;;;5054289;28;20029;-66
2022/03/02 12:00:14;;;;;;;23.02;12.82;;;22.40;47.40;;;;;;5054285;28;20032;-68
2022/03/02 12:02:41;;;;;;;25.17;15.00;;;22.30;49.40;;;;;;5052540;28;20029;-68
2022/03/02 12:05:07;;;;;;;28.35;16.27;;;22.30;50.70;;;;;;5035545;28;20080;-67
2022/03/02 12:08:03;;;;;;;25.02;16.05;;;22.30;53.00;;;;;;5034529;28;20037;-66
2022/03/02 12:10:34;;;;;;;29.13;17.02;;;22.40;53.50;;;;;;5034113;28;20029;-68
2022/03/02 12:13:00;;;;;;;25.40;15.97;;;22.40;53.60;;;;;;5034493;28;20065;-67
2022/03/02 12:15:40;;;;;;;30.65;16.85;;;22.30;53.20;;;;;;5034520;28;20075;-69
2022/03/02 12:18:10;;;;;;;27.27;16.67;;;22.10;53.00;;;;;;5033841;28;20051;-65
2022/03/02 12:20:47;;;;;;;24.38;15.10;;;21.90;53.90;;;;;;5033956;28;20128;-68
2022/03/02 12:23:20;;;;;;;27.42;16.77;;;21.60;53.90;;;;;;5033759;28;20783;-66
2022/03/02 12:25:47;;;;;;;27.05;17.00;;;21.40;55.00;;;;;;5033931;28;20706;-66
2022/03/02 12:28:15;;;;;;;26.73;16.80;;;21.30;56.50;;;;;;5033414;28;20108;-65
2022/03/02 12:30:41;;;;;;;29.42;17.60;;;21.30;56.10;;;;;;5033612;28;20033;-65
2022/03/02 12:33:08;;;;;;;28.35;16.73;;;21.30;56.40;;;;;;5033419;28;20089;-68
2022/03/02 12:35:35;;;;;;;30.05;18.27;;;21.20;56.30;;;;;;5033315;28;20588;-68
2022/03/02 12:38:07;;;;;;;28.67;17.70;;;21.10;58.10;;;;;;5033638;28;20037;-67